Time;durP1;ratioP1;P1;durP2;ratioP2;P2;SDS_P1;SDS_P2;PMS_P1;PMS_P2;Temp;Humidity;BMP_temperature;BMP_pressure;BME280_temperature;BME280_humidity;BME280_pressure;Samples;Min_cycle;Max_cycle;Signal;HPM_P1;HPM_P2
2022/06/28 00:01:36;;;;;;;3.50;3.00;;;;;;;15.53;100.00;102026.50;5038199;28;20180;-74
2022/06/28 00:04:02;;;;;;;3.80;2.83;;;;;;;15.84;100.00;102092.78;5038397;28;20735;-73
2022/06/28 00:06:27;;;;;;;4.80;2.83;;;;;;;15.71;100.00;102069.25;5039375;28;20270;-74
2022/06/28 00:08:52;;;;;;;2.93;2.73;;;;;;;15.70;100.00;102056.75;5039239;28;20632;-73
2022/06/28 00:11:18;;;;;;;4.27;2.60;;;;;;;15.37;100.00;102020.41;5036957;28;20693;-73
2022/06/28 00:13:43;;;;;;;2.73;2.47;;;;;;;15.86;100.00;102106.97;5037366;28;20196;-74
2022/06/28 00:16:14;;;;;;;3.90;2.50;;;;;;;15.52;100.00;102070.81;5036121;28;20187;-74
2022/06/28 00:18:40;;;;;;;3.47;2.50;;;;;;;15.79;100.00;102109.63;5035862;28;20187;-73
2022/06/28 00:21:06;;;;;;;3.50;2.50;;;;;;;15.23;100.00;102026.78;5034870;28;21001;-73
2022/06/28 00:23:33;;;;;;;2.83;2.20;;;;;;;15.42;100.00;102054.09;5039390;28;20195;-73
2022/06/28 00:25:59;;;;;;;4.13;2.47;;;;;;;15.45;100.00;102076.19;5039176;28;20444;-74
2022/06/28 00:28:24;;;;;;;5.10;2.93;;;;;;;15.76;100.00;102118.97;5035495;28;20438;-73
2022/06/28 00:30:50;;;;;;;4.53;2.83;;;;;;;15.71;100.00;102115.25;5042905;28;20184;-73
2022/06/28 00:33:16;;;;;;;4.53;2.83;;;;;;;15.03;100.00;102002.38;5039689;28;20211;-73
2022/06/28 00:35:42;;;;;;;3.50;3.10;;;;;;;15.68;100.00;102107.50;5040050;28;20739;-73
2022/06/28 00:38:07;;;;;;;4.90;3.50;;;;;;;15.29;100.00;102071.09;5037700;28;20473;-73
2022/06/28 00:40:38;;;;;;;4.37;3.40;;;;;;;15.27;100.00;102059.66;5039212;28;20690;-73
2022/06/28 00:43:04;;;;;;;4.00;3.63;;;;;;;15.42;100.00;102091.94;5036921;28;20219;-73
2022/06/28 00:45:30;;;;;;;3.87;3.57;;;;;;;15.27;100.00;102073.16;5037531;28;20439;-73
2022/06/28 00:47:56;;;;;;;5.03;4.50;;;;;;;14.91;100.00;102039.91;5036706;28;20192;-73
2022/06/28 00:50:21;;;;;;;5.97;4.60;;;;;;;14.94;100.00;102030.59;5030320;28;20254;-73
2022/06/28 00:53:02;;;;;;;7.20;4.43;;;;;;;15.40;100.00;102132.72;5041001;28;20574;-73
2022/06/28 00:55:27;;;;;;;8.53;5.80;;;;;;;15.16;100.00;102098.91;5037503;28;20548;-73
2022/06/28 00:57:52;;;;;;;6.57;5.10;;;;;;;15.44;100.00;102141.25;5040861;28;20486;-74
2022/06/28 01:00:18;;;;;;;7.67;5.63;;;;;;;15.67;100.00;102181.53;5032446;28;20192;-74
2022/06/28 01:02:43;;;;;;;7.27;6.07;;;;;;;14.81;100.00;102036.75;5038305;28;20226;-74
2022/06/28 01:05:09;;;;;;;8.53;5.63;;;;;;;15.60;100.00;102176.09;5033987;28;20208;-74
2022/06/28 01:07:34;;;;;;;7.20;5.97;;;;;;;14.97;100.00;102068.00;5033153;28;20183;-73
2022/06/28 01:10:00;;;;;;;7.07;6.37;;;;;;;15.70;100.00;102179.28;5039110;28;20187;-74
2022/06/28 01:12:26;;;;;;;6.87;5.53;;;;;;;15.24;100.00;102119.50;5031750;28;20216;-74
2022/06/28 01:14:51;;;;;;;6.80;5.60;;;;;;;15.46;100.00;102160.84;5038262;28;20218;-73
2022/06/28 01:17:16;;;;;;;6.70;5.90;;;;;;;15.25;100.00;102134.72;5039440;28;20549;-74
2022/06/28 01:19:42;;;;;;;6.63;5.50;;;;;;;15.36;100.00;102156.63;5037698;28;20669;-74
2022/06/28 01:22:11;;;;;;;6.27;5.67;;;;;;;15.22;100.00;102146.75;5032947;28;20202;-74
2022/06/28 01:24:36;;;;;;;6.27;5.67;;;;;;;15.49;100.00;102188.31;5037130;28;20684;-74
2022/06/28 01:27:02;;;;;;;8.17;6.27;;;;;;;15.37;100.00;102171.81;5039470;28;20433;-73
2022/06/28 01:29:28;;;;;;;6.80;6.10;;;;;;;14.85;100.00;102089.34;5033146;28;20738;-74
2022/06/28 01:31:53;;;;;;;7.20;6.40;;;;;;;15.20;100.00;102148.81;5041406;28;20718;-73
2022/06/28 01:34:20;;;;;;;6.87;6.10;;;;;;;15.37;100.00;102182.63;5038219;28;20201;-73
2022/06/28 01:36:46;;;;;;;7.53;5.83;;;;;;;15.45;100.00;102184.34;5040817;28;20192;-73
2022/06/28 01:39:12;;;;;;;6.77;6.17;;;;;;;15.47;100.00;102187.66;5036595;28;20523;-73
2022/06/28 01:41:38;;;;;;;8.17;6.37;;;;;;;15.36;100.00;102183.66;5038819;28;20210;-74
2022/06/28 01:44:06;;;;;;;7.07;6.17;;;;;;;15.37;100.00;102182.63;5036089;28;21001;-73
2022/06/28 01:46:36;;;;;;;6.53;5.90;;;;;;;15.36;100.00;102189.06;5033777;28;20271;-73
2022/06/28 01:49:01;;;;;;;6.07;5.50;;;;;;;15.37;100.00;102188.03;5039314;28;20462;-73
2022/06/28 01:51:27;;;;;;;7.03;6.33;;;;;;;14.86;100.00;102123.41;5032367;28;20485;-73
2022/06/28 01:53:52;;;;;;;6.13;5.53;;;;;;;14.78;100.00;102117.31;5032770;28;20195;-74
2022/06/28 01:56:17;;;;;;;6.10;5.50;;;;;;;15.27;100.00;102187.53;5037119;28;20184;-74
2022/06/28 01:58:43;;;;;;;7.67;6.97;;;;;;;14.99;100.00;102163.22;5039120;28;20191;-74
2022/06/28 02:01:08;;;;;;;6.50;5.90;;;;;;;15.01;100.00;102193.56;5036063;28;20731;-74
2022/06/28 02:03:34;;;;;;;8.30;6.10;;;;;;;14.69;100.00;102114.78;5040330;28;20203;-74
2022/06/28 02:05:59;;;;;;;7.07;5.30;;;;;;;14.62;100.00;102102.25;5039557;28;20198;-74
2022/06/28 02:08:25;;;;;;;6.30;5.80;;;;;;;15.15;100.00;102183.69;5040184;28;20700;-74
2022/06/28 02:10:51;;;;;;;8.27;7.20;;;;;;;14.59;100.00;102116.13;5044851;28;20195;-74
2022/06/28 02:13:16;;;;;;;8.30;6.60;;;;;;;15.07;100.00;102171.19;5038071;28;20712;-74
2022/06/28 02:15:41;;;;;;;7.93;5.93;;;;;;;15.14;100.00;102204.47;5042386;28;20188;-74
2022/06/28 02:18:07;;;;;;;9.83;6.77;;;;;;;14.43;100.00;102082.91;5039978;28;20184;-74
2022/06/28 02:20:33;;;;;;;9.47;7.20;;;;;;;14.99;100.00;102216.44;5040981;28;20200;-73
2022/06/28 02:22:59;;;;;;;6.77;6.17;;;;;;;14.97;100.00;102210.38;5039320;28;20218;-73
2022/06/28 02:25:25;;;;;;;7.40;5.97;;;;;;;14.23;100.00;102103.50;5043527;28;20938;-74
2022/06/28 02:27:51;;;;;;;8.40;7.53;;;;;;;14.81;100.00;102215.03;5037048;28;20194;-74
2022/06/28 02:30:17;;;;;;;8.20;7.40;;;;;;;14.52;100.00;102170.06;5038593;28;20190;-73
2022/06/28 02:32:42;;;;;;;7.43;6.60;;;;;;;14.70;100.00;102210.13;5038237;28;20450;-73
2022/06/28 02:40:37;;;;;;;7.97;7.27;;;;;;;14.93;100.00;102223.44;5039432;28;20475;-73
2022/06/28 02:45:35;;;;;;;10.40;6.60;;;;;;;14.41;100.00;102160.59;4989439;28;20233;-74
2022/06/28 02:48:02;;;;;;;6.90;6.30;;;;;;;14.58;100.00;102195.44;5000393;28;20501;-74
2022/06/28 02:50:27;;;;;;;7.60;6.60;;;;;;;14.66;100.00;102222.31;4998200;28;21273;-76
2022/06/28 02:52:53;;;;;;;9.17;6.93;;;;;;;14.54;100.00;102205.81;5000990;28;20501;-75
2022/06/28 02:55:18;;;;;;;7.07;6.40;;;;;;;14.20;100.00;102164.09;4997020;28;20213;-75
2022/06/28 02:57:47;;;;;;;6.30;5.70;;;;;;;14.74;100.00;102234.88;5002343;28;20181;-75
2022/06/28 03:00:15;;;;;;;6.70;5.47;;;;;;;13.02;100.00;101981.78;4996301;28;20199;-74
2022/06/28 03:02:41;;;;;;;6.27;5.33;;;;;;;13.20;100.00;102023.66;4998611;28;20454;-74
2022/06/28 03:05:10;;;;;;;5.83;5.30;;;;;;;14.48;100.00;102188.47;4999557;28;20824;-74
2022/06/28 03:07:36;;;;;;;6.00;5.43;;;;;;;14.66;100.00;102223.16;4998555;28;20443;-74
2022/06/28 03:10:02;;;;;;;6.30;5.67;;;;;;;14.72;100.00;102220.72;4999980;28;20439;-74
2022/06/28 03:12:27;;;;;;;7.50;5.30;;;;;;;14.15;100.00;102149.50;4996939;28;20436;-73
2022/06/28 03:14:53;;;;;;;5.93;5.43;;;;;;;14.53;100.00;102214.94;4999506;28;20847;-74
2022/06/28 03:17:18;;;;;;;6.10;5.60;;;;;;;14.32;100.00;102169.84;4997831;28;20185;-74
2022/06/28 03:19:44;;;;;;;6.60;5.97;;;;;;;14.51;100.00;102226.91;4999905;28;20205;-74
2022/06/28 03:22:09;;;;;;;6.97;6.30;;;;;;;13.88;100.00;102137.56;5001106;28;20322;-74
2022/06/28 03:24:35;;;;;;;6.73;6.13;;;;;;;14.14;100.00;102150.50;4997071;28;20209;-74
2022/06/28 03:27:00;;;;;;;7.07;6.47;;;;;;;14.16;100.00;102165.50;4998028;28;20189;-75
2022/06/28 03:29:26;;;;;;;6.70;6.10;;;;;;;14.06;100.00;102151.50;4996525;28;20193;-74
2022/06/28 03:31:51;;;;;;;6.93;6.30;;;;;;;14.27;100.00;102184.94;4999054;28;20568;-73
2022/06/28 03:34:19;;;;;;;5.83;5.33;;;;;;;14.68;100.00;102261.63;4997174;28;20713;-73
2022/06/28 03:36:45;;;;;;;7.00;6.30;;;;;;;13.97;100.00;102121.09;4998464;28;20186;-74
2022/06/28 03:39:10;;;;;;;9.53;6.77;;;;;;;14.32;100.00;102195.97;4997840;28;20543;-73
2022/06/28 03:41:36;;;;;;;7.30;6.60;;;;;;;14.20;100.00;102169.50;4997238;28;20189;-74
2022/06/28 03:44:01;;;;;;;7.40;5.97;;;;;;;14.51;100.00;102191.81;5000345;28;20255;-74
2022/06/28 03:46:27;;;;;;;5.90;5.30;;;;;;;12.56;100.00;101876.19;4998407;28;20528;-74
2022/06/28 03:48:52;;;;;;;6.60;5.83;;;;;;;14.61;100.00;102212.13;4997189;28;20235;-74
2022/06/28 03:51:18;;;;;;;6.90;5.33;;;;;;;13.50;100.00;102041.47;5011445;28;20186;-74
2022/06/28 03:53:43;;;;;;;7.50;5.83;;;;;;;14.66;100.00;102241.22;4997171;28;20234;-74
2022/06/28 03:56:10;;;;;;;6.73;5.43;;;;;;;13.60;100.00;102049.28;5011861;28;20192;-74
2022/06/28 03:58:38;;;;;;;7.03;6.10;;;;;;;14.63;100.00;102247.84;4999083;28;20795;-75
2022/06/28 04:01:04;;;;;;;6.00;5.10;;;;;;;13.85;100.00;102125.28;4996753;28;20451;-73
2022/06/28 04:03:29;;;;;;;6.50;5.37;;;;;;;13.76;100.00;102108.38;4995184;28;20463;-74
2022/06/28 04:05:55;;;;;;;7.67;6.17;;;;;;;14.38;100.00;102209.56;4997679;28;20186;-73
2022/06/28 04:08:20;;;;;;;5.80;5.17;;;;;;;12.72;100.00;101954.03;4996958;28;20235;-74
2022/06/28 04:10:46;;;;;;;8.60;5.10;;;;;;;12.69;100.00;101932.88;4998070;28;20451;-75
2022/06/28 04:13:11;;;;;;;5.13;4.63;;;;;;;14.66;100.00;102242.06;4994287;28;20231;-74
2022/06/28 04:15:38;;;;;;;4.50;4.10;;;;;;;14.70;100.00;102239.84;4998063;28;20224;-74
2022/06/28 04:18:07;;;;;;;5.90;4.73;;;;;;;14.08;100.00;102129.69;4998697;28;20184;-75
2022/06/28 04:20:33;;;;;;;5.60;4.60;;;;;;;14.75;100.00;102240.06;4993318;28;20440;-75
2022/06/28 04:22:59;;;;;;;7.97;4.90;;;;;;;14.34;100.00;102173.16;5000492;28;20443;-75
2022/06/28 04:25:24;;;;;;;6.73;4.63;;;;;;;14.64;100.00;102216.31;4998963;28;20928;-75
2022/06/28 04:27:51;;;;;;;5.20;4.63;;;;;;;14.19;100.00;102142.69;4998578;28;20181;-74
2022/06/28 04:30:17;;;;;;;6.23;5.00;;;;;;;14.52;100.00;102213.25;4996385;28;20189;-74
2022/06/28 04:32:42;;;;;;;6.50;5.00;;;;;;;12.81;100.00;101927.84;4996992;28;20437;-74
2022/06/28 04:35:08;;;;;;;7.33;5.77;;;;;;;13.68;100.00;102094.16;5000250;28;20206;-75
2022/06/28 04:37:33;;;;;;;7.77;5.40;;;;;;;14.52;100.00;102194.34;4997774;28;20187;-74
2022/06/28 04:39:59;;;;;;;7.20;5.80;;;;;;;14.78;100.00;102253.22;4997958;28;20677;-75
2022/06/28 04:42:24;;;;;;;5.83;5.20;;;;;;;14.27;100.00;102155.25;4996751;28;20192;-76
2022/06/28 04:44:50;;;;;;;6.37;5.77;;;;;;;14.37;100.00;102185.44;4998950;28;20213;-74
2022/06/28 04:47:15;;;;;;;7.33;5.23;;;;;;;14.86;100.00;102241.44;4996194;28;20323;-74
2022/06/28 04:49:40;;;;;;;7.20;5.10;;;;;;;13.95;100.00;102103.41;5000704;28;20185;-74
2022/06/28 04:52:06;;;;;;;8.07;5.03;;;;;;;14.66;100.00;102196.16;4998338;28;20184;-75
2022/06/28 04:54:32;;;;;;;7.57;4.93;;;;;;;14.94;100.00;102246.72;4996253;28;20279;-74
2022/06/28 04:56:57;;;;;;;6.63;4.97;;;;;;;14.69;100.00;102189.53;4998119;28;20470;-75
2022/06/28 04:59:23;;;;;;;5.80;4.20;;;;;;;14.12;100.00;102101.31;4995767;28;20600;-74
2022/06/28 05:01:48;;;;;;;6.20;4.37;;;;;;;13.60;100.00;102032.25;4998319;28;20189;-74
2022/06/28 05:04:14;;;;;;;6.77;4.93;;;;;;;14.41;100.00;102175.94;4998240;28;20631;-74
2022/06/28 05:06:40;;;;;;;4.73;4.23;;;;;;;13.64;100.00;102004.75;4993984;28;20192;-75
2022/06/28 05:09:05;;;;;;;6.50;4.87;;;;;;;14.65;100.00;102193.66;4997859;28;20193;-75
2022/06/28 05:11:30;;;;;;;7.13;4.30;;;;;;;14.13;100.00;102133.50;4996484;28;20190;-75
2022/06/28 05:13:56;;;;;;;5.23;3.97;;;;;;;14.83;100.00;102214.81;4995794;28;20605;-74
2022/06/28 05:16:22;;;;;;;7.13;4.33;;;;;;;15.21;100.00;102252.34;4993986;28;20538;-74
2022/06/28 05:18:47;;;;;;;7.50;4.97;;;;;;;15.17;100.00;102251.09;4985691;28;20188;-75
2022/06/28 05:21:15;;;;;;;6.63;4.30;;;;;;;15.20;100.00;102242.59;4996541;28;20189;-75
2022/06/28 05:23:41;;;;;;;5.90;4.50;;;;;;;13.38;100.00;101964.03;4991509;28;20216;-76
2022/06/28 05:26:06;;;;;;;6.00;4.23;;;;;;;14.30;100.00;102126.00;4990627;28;20441;-75
2022/06/28 05:28:32;;;;;;;6.33;4.20;;;;;;;14.60;100.00;102158.28;4991157;28;20236;-75
2022/06/28 05:30:57;;;;;;;7.97;4.70;;;;;;;15.30;100.00;102262.00;5006019;28;20268;-74
2022/06/28 05:33:23;;;;;;;3.73;3.33;;;;;;;15.33;100.00;102259.75;4992414;28;20716;-74
2022/06/28 05:35:49;;;;;;;6.00;4.00;;;;;;;14.77;100.00;102158.88;4989792;28;20189;-76
2022/06/28 05:38:15;;;;;;;4.40;3.90;;;;;;;15.37;100.00;102254.78;4999027;28;20259;-74
2022/06/28 05:40:40;;;;;;;5.87;4.20;;;;;;;14.52;100.00;102137.66;4998374;28;21335;-75
2022/06/28 05:43:06;;;;;;;4.47;4.07;;;;;;;14.85;100.00;102199.25;5000326;28;20192;-76
2022/06/28 05:45:31;;;;;;;7.37;5.00;;;;;;;14.57;100.00;102197.31;4994566;28;20188;-75
2022/06/28 05:47:57;;;;;;;5.90;4.83;;;;;;;14.94;100.00;102249.41;5000910;28;20185;-78
2022/06/28 05:50:23;;;;;;;6.57;4.60;;;;;;;14.35;100.00;102174.84;4993835;28;20653;-73
2022/06/28 05:52:49;;;;;;;8.87;4.90;;;;;;;14.56;100.00;102170.53;4997184;28;20201;-75
2022/06/28 05:55:14;;;;;;;8.20;4.53;;;;;;;14.89;100.00;102219.44;5001601;28;20464;-73
2022/06/28 05:57:40;;;;;;;9.20;5.47;;;;;;;14.91;100.00;102223.63;4995561;28;20609;-72
2022/06/28 06:00:06;;;;;;;10.60;5.77;;;;;;;14.96;100.00;102228.44;4999435;28;20607;-72
2022/06/28 06:02:31;;;;;;;6.10;4.80;;;;;;;15.21;100.00;102265.88;4998065;28;20610;-75
2022/06/28 06:04:59;;;;;;;8.90;4.83;;;;;;;15.19;100.00;102276.03;5013153;28;20490;-75
2022/06/28 06:07:24;;;;;;;6.80;4.73;;;;;;;15.39;100.00;102285.16;4999315;28;20173;-74
2022/06/28 06:09:50;;;;;;;6.90;5.37;;;;;;;13.78;100.00;102044.31;4997515;28;20924;-74
2022/06/28 06:12:16;;;;;;;7.30;4.93;;;;;;;15.34;100.00;102295.72;4998290;28;20190;-75
2022/06/28 06:14:42;;;;;;;5.73;5.13;;;;;;;14.89;100.00;102203.22;4994957;28;20202;-76
2022/06/28 06:17:07;;;;;;;6.20;5.10;;;;;;;14.79;100.00;102211.66;4999122;28;20454;-74
2022/06/28 06:19:32;;;;;;;5.80;5.10;;;;;;;15.55;100.00;102308.38;4996613;28;20212;-74
2022/06/28 06:21:58;;;;;;;6.23;4.57;;;;;;;14.99;100.00;102206.44;4997675;28;20177;-74
2022/06/28 06:24:23;;;;;;;6.33;4.70;;;;;;;15.75;100.00;102309.38;4999993;28;20209;-76
2022/06/28 06:26:49;;;;;;;7.73;4.30;;;;;;;15.22;100.00;102256.75;4997243;28;20191;-74
2022/06/28 06:29:14;;;;;;;6.73;4.73;;;;;;;15.48;100.00;102273.19;4997922;28;20210;-75
2022/06/28 06:31:39;;;;;;;6.23;4.40;;;;;;;15.20;100.00;102202.03;4995668;28;20189;-75
2022/06/28 06:34:06;;;;;;;4.40;4.00;;;;;;;15.69;100.00;102296.66;4996424;28;20220;-76
2022/06/28 06:36:32;;;;;;;7.60;5.50;;;;;;;14.04;100.00;102020.50;4993392;28;20195;-74
2022/06/28 06:38:58;;;;;;;8.57;5.17;;;;;;;15.53;100.00;102262.56;4995597;28;20443;-75
2022/06/28 06:41:23;;;;;;;4.37;3.90;;;;;;;15.35;100.00;102229.81;4994406;28;20193;-76
2022/06/28 06:43:49;;;;;;;4.73;3.40;;;;;;;15.19;100.00;102192.25;4998364;28;20303;-75
2022/06/28 06:46:15;;;;;;;5.17;4.30;;;;;;;15.93;100.00;102308.88;4999674;28;20261;-75
2022/06/28 06:48:40;;;;;;;6.80;4.17;;;;;;;15.91;100.00;102269.50;4993444;28;21238;-74
2022/06/28 06:51:06;;;;;;;8.23;3.50;;;;;;;16.02;100.00;102294.13;4996859;28;20560;-75
2022/06/28 06:53:31;;;;;;;9.63;4.07;;;;;;;15.77;100.00;102247.81;4996699;28;20579;-74
2022/06/28 06:55:57;;;;;;;6.77;3.97;;;;;;;15.59;100.00;102196.91;4995988;28;20233;-74
2022/06/28 06:58:22;;;;;;;5.73;4.00;;;;;;;16.00;100.00;102261.06;4997022;28;20236;-74
2022/06/28 07:00:49;;;;;;;7.83;4.00;;;;;;;15.73;100.00;102205.13;4989710;28;20190;-74
2022/06/28 07:03:15;;;;;;;4.20;3.00;;;;;;;16.10;100.00;102273.38;4995203;28;20269;-74
2022/06/28 07:05:40;;;;;;;6.17;3.70;;;;;;;16.20;100.00;102293.63;4994542;28;20531;-74
2022/06/28 07:08:06;;;;;;;4.93;2.53;;;;;;;15.42;100.00;102124.41;4997182;28;20197;-74
2022/06/28 07:10:31;;;;;;;5.20;3.10;;;;;;;15.79;100.00;102169.13;4994546;28;20561;-74
2022/06/28 07:12:56;;;;;;;5.07;2.73;;;;;;;15.94;100.00;102172.56;4996723;28;20782;-75
2022/06/28 07:15:22;;;;;;;2.93;1.63;;;;;;;16.06;100.00;102169.28;4996639;28;20208;-73
2022/06/28 07:17:47;;;;;;;3.87;2.50;;;;;;;16.09;100.00;102168.88;4990925;28;20420;-73
2022/06/28 07:20:13;;;;;;;7.17;2.80;;;;;;;16.44;100.00;102232.69;4997817;28;20665;-73
2022/06/28 07:22:38;;;;;;;6.87;3.53;;;;;;;16.35;100.00;102214.97;4991538;28;20189;-73
2022/06/28 07:25:04;;;;;;;4.97;2.97;;;;;;;16.75;100.00;102262.97;4993725;28;20288;-71
2022/06/28 07:27:29;;;;;;;6.00;2.60;;;;;;;16.45;100.00;102201.03;4993941;28;20618;-71
2022/06/28 07:29:55;;;;;;;6.57;3.20;;;;;;;16.41;100.00;102175.41;4991016;28;20486;-73
2022/06/28 07:32:20;;;;;;;5.43;3.00;;;;;;;16.58;100.00;102198.38;4992269;28;20192;-73
2022/06/28 07:34:46;;;;;;;5.60;2.80;;;;;;;15.39;100.00;102041.84;4990295;28;20304;-73
2022/06/28 07:37:11;;;;;;;4.00;2.50;;;;;;;16.68;100.00;102255.66;4991760;28;20276;-71
2022/06/28 07:39:37;;;;;;;3.53;2.67;;;;;;;17.00;100.00;102264.09;4990254;28;20267;-73
2022/06/28 07:42:03;;;;;;;5.93;2.87;;;;;;;16.17;100.00;102160.53;4988750;28;20270;-70
2022/06/28 07:44:28;;;;;;;4.73;2.13;;;;;;;16.54;100.00;102196.25;4982167;28;21911;-70
2022/06/28 07:46:54;;;;;;;3.70;1.97;;;;;;;16.88;100.00;102188.00;5002340;28;20193;-71
2022/06/28 07:49:19;;;;;;;6.03;2.20;;;;;;;17.11;100.00;102213.84;4989591;28;20185;-71
2022/06/28 07:54:29;;;;;;;4.67;1.73;;;;;;;16.59;100.00;102167.50;4984804;28;20372;-70
2022/06/28 07:56:54;;;;;;;5.90;2.50;;;;;;;17.39;100.00;102257.84;4991470;28;20501;-71
2022/06/28 07:59:19;;;;;;;9.50;2.90;;;;;;;16.89;100.00;102203.22;4995060;28;20255;-70
2022/06/28 08:01:46;;;;;;;4.60;2.07;;;;;;;16.98;100.00;102200.28;4998041;28;20578;-71
2022/06/28 08:04:12;;;;;;;9.60;3.20;;;;;;;17.35;100.00;102236.78;4998060;28;20217;-71
2022/06/28 08:06:37;;;;;;;2.80;2.30;;;;;;;16.89;100.00;102162.59;4997607;28;20858;-71
2022/06/28 08:09:03;;;;;;;6.57;2.70;;;;;;;17.10;100.00;102188.63;4991590;28;20207;-71
2022/06/28 08:11:28;;;;;;;5.50;2.40;;;;;;;17.39;100.00;102224.47;4995271;28;20676;-71
2022/06/28 08:13:54;;;;;;;4.53;1.77;;;;;;;17.69;100.00;102251.97;4995370;28;20628;-71
2022/06/28 08:16:21;;;;;;;3.90;1.60;;;;;;;17.74;100.00;102233.19;4999458;28;20272;-71
2022/06/28 08:18:46;;;;;;;4.43;1.97;;;;;;;17.52;100.00;102212.75;4991845;28;20239;-72
2022/06/28 08:21:12;;;;;;;3.97;1.93;;;;;;;17.62;100.00;102226.75;4993037;28;20449;-71
2022/06/28 08:23:38;;;;;;;3.50;1.80;;;;;;;17.61;100.00;102231.31;4977765;28;20295;-73
2022/06/28 08:26:03;;;;;;;2.30;1.17;;;;;;;17.56;100.00;102192.28;4985521;28;20516;-73
2022/06/28 08:28:29;;;;;;;4.73;1.30;;;;;;;17.57;100.00;102189.38;4993797;28;20279;-73
2022/06/28 08:30:54;;;;;;;4.97;1.50;;;;;;;17.89;100.00;102227.53;4996605;28;20674;-73
2022/06/28 08:33:20;;;;;;;4.27;1.60;;;;;;;17.09;100.00;102112.91;4997977;28;20212;-73
2022/06/28 08:35:46;;;;;;;6.37;1.40;;;;;;;16.88;100.00;102103.97;4996896;28;20245;-72
2022/06/28 08:38:11;;;;;;;3.77;1.30;;;;;;;17.67;100.00;102198.97;4995267;28;21066;-73
2022/06/28 08:40:37;;;;;;;1.60;1.40;;;;;;;17.14;100.00;102105.81;4997308;28;20193;-74
2022/06/28 08:43:05;;;;;;;4.33;1.30;;;;;;;17.83;100.00;102212.09;4991424;28;20732;-73
2022/06/28 08:45:31;;;;;;;5.83;1.40;;;;;;;16.88;100.00;102076.88;4994540;28;20240;-74
2022/06/28 08:47:57;;;;;;;3.03;1.50;;;;;;;17.48;100.00;102187.94;4998469;28;20828;-73
2022/06/28 08:50:33;;;;;;;3.03;0.83;;;;;;;17.79;100.00;102217.13;5000744;28;20427;-73
2022/06/28 08:53:01;;;;;;;3.40;1.40;;;;;;;17.42;100.00;102169.00;4993701;28;20483;-73
2022/06/28 08:55:29;;;;;;;3.10;1.37;;;;;;;17.83;100.00;102215.66;4997442;28;20466;-73
2022/06/28 08:57:55;;;;;;;2.47;1.00;;;;;;;17.29;100.00;102134.56;5001286;28;20496;-73
2022/06/28 09:00:20;;;;;;;4.10;1.33;;;;;;;17.53;100.00;102158.31;4993094;28;20452;-73
2022/06/28 09:02:47;;;;;;;2.57;1.00;;;;;;;17.76;100.00;102186.81;4995977;28;20876;-73
2022/06/28 09:05:15;;;;;;;3.73;1.43;;;;;;;17.19;100.00;102082.69;4997581;28;20208;-73
2022/06/28 09:07:40;;;;;;;3.23;1.00;;;;;;;17.28;100.00;102086.81;4997711;28;20445;-73
2022/06/28 09:10:06;;;;;;;4.43;1.50;;;;;;;17.28;100.00;102093.06;4996253;28;20855;-73
2022/06/28 09:12:35;;;;;;;2.07;1.00;;;;;;;18.15;100.00;102206.75;4992200;28;20184;-72
2022/06/28 09:15:04;;;;;;;5.10;1.47;;;;;;;17.53;100.00;102122.19;4991891;28;20213;-73
2022/06/28 09:17:31;;;;;;;4.53;1.63;;;;;;;17.89;100.00;102162.38;4992493;28;20927;-70
2022/06/28 09:20:07;;;;;;;3.07;1.00;;;;;;;18.29;100.00;102209.19;4993955;28;20805;-71
2022/06/28 09:22:35;;;;;;;4.33;1.10;;;;;;;18.11;100.00;102200.06;4992009;28;20428;-71
2022/06/28 09:25:04;;;;;;;2.80;1.10;;;;;;;17.59;100.00;102105.91;4997190;28;20461;-70
2022/06/28 09:27:33;;;;;;;5.80;1.20;;;;;;;18.07;100.00;102167.94;4994736;28;20815;-70
2022/06/28 09:30:00;;;;;;;2.40;1.30;;;;;;;18.29;100.00;102203.75;4994966;28;21828;-70
2022/06/28 09:32:31;;;;;;;1.20;0.90;;;;;;;18.20;100.00;102142.59;4993331;28;20829;-70
2022/06/28 09:35:11;;;;;;;2.70;1.20;;;;;;;18.29;100.00;102171.16;4996467;28;20535;-71
2022/06/28 09:37:47;;;;;;;5.77;1.10;;;;;;;18.49;100.00;102197.38;4997883;28;20443;-70
2022/06/28 09:40:32;;;;;;;3.93;1.13;;;;;;;18.22;100.00;102192.09;4988969;28;20992;-71
2022/06/28 09:43:14;;;;;;;3.50;1.33;;;;;;;18.48;100.00;102195.69;4990528;28;20467;-71
2022/06/28 09:45:50;;;;;;;3.57;1.13;;;;;;;18.30;100.00;102153.81;4988179;28;20436;-71
2022/06/28 09:48:17;;;;;;;2.30;0.83;;;;;;;18.62;100.00;102180.97;4995551;28;20511;-71
2022/06/28 09:50:42;;;;;;;3.17;1.03;;;;;;;17.88;100.00;102064.88;4987194;28;20473;-71
2022/06/28 09:53:09;;;;;;;2.07;0.80;;;;;;;18.21;100.00;102092.66;4986617;28;20520;-71
2022/06/28 09:55:35;;;;;;;2.90;1.10;;;;;;;18.58;100.00;102185.19;4991027;28;20210;-71
2022/06/28 09:58:02;;;;;;;2.40;1.13;;;;;;;18.57;100.00;102156.34;4989098;28;20452;-69
2022/06/28 10:00:29;;;;;;;2.77;0.90;;;;;;;18.55;100.00;102115.00;4992478;28;20734;-69
2022/06/28 10:02:56;;;;;;;3.73;0.93;;;;;;;18.93;100.00;102174.72;4984627;28;20467;-69
2022/06/28 10:05:23;;;;;;;4.37;1.40;;;;;;;19.05;100.00;102168.56;4986326;28;20468;-73
2022/06/28 10:07:49;;;;;;;3.30;1.63;;;;;;;19.03;100.00;102176.09;4990922;28;21010;-72
2022/06/28 10:10:15;;;;;;;2.03;1.10;;;;;;;19.13;100.00;102182.69;4988683;28;20449;-72
2022/06/28 10:15:30;;;;;;;5.83;1.37;;;;;;;18.99;100.00;102137.66;4994542;28;20474;-70
2022/06/28 10:18:00;;;;;;;3.77;1.17;;;;;;;18.96;100.00;102121.78;4976407;28;20445;-71
2022/06/28 10:20:34;;;;;;;3.63;0.93;;;;;;;19.18;100.00;102160.28;4989127;28;20443;-70
2022/06/28 10:23:36;;;;;;;2.70;0.93;;;;;;;19.09;100.00;102162.47;4994120;28;20842;-71
2022/06/28 10:26:07;;;;;;;3.20;1.20;;;;;;;18.89;100.00;102172.66;4993798;28;20516;-70
2022/06/28 10:29:03;;;;;;;6.80;0.97;;;;;;;18.60;100.00;102123.31;4990017;28;20829;-70
2022/06/28 10:31:29;;;;;;;2.43;0.97;;;;;;;19.01;100.00;102167.34;4991896;28;20519;-71
2022/06/28 10:33:57;;;;;;;2.30;1.17;;;;;;;19.17;100.00;102169.47;4999669;28;20467;-71
2022/06/28 10:36:25;;;;;;;2.23;1.00;;;;;;;19.36;100.00;102157.56;4993158;28;20522;-71
2022/06/28 10:39:08;;;;;;;2.00;0.93;;;;;;;19.33;100.00;102159.91;4994017;28;20448;-71
2022/06/28 10:41:44;;;;;;;3.03;1.00;;;;;;;19.20;100.00;102155.44;4996729;28;20451;-71
2022/06/28 10:44:18;;;;;;;2.23;1.00;;;;;;;19.26;100.00;102153.69;4987439;28;20466;-71
2022/06/28 10:47:12;;;;;;;1.67;0.90;;;;;;;19.38;100.00;102157.34;4995482;28;20428;-71
2022/06/28 10:49:46;;;;;;;5.07;1.20;;;;;;;19.50;100.00;102157.41;4989866;28;20456;-71
2022/06/28 10:52:20;;;;;;;3.10;1.20;;;;;;;19.39;100.00;102151.69;4990675;28;20452;-72
2022/06/28 10:54:51;;;;;;;2.60;1.10;;;;;;;19.52;100.00;102145.25;4993998;28;20467;-71
2022/06/28 10:57:34;;;;;;;3.23;1.40;;;;;;;19.49;100.00;102142.16;4998344;28;20476;-71
2022/06/28 11:00:04;;;;;;;1.37;0.73;;;;;;;19.58;100.00;102128.00;4999915;28;20494;-71
2022/06/28 11:02:52;;;;;;;5.07;1.43;;;;;;;19.79;100.00;102148.53;4999644;28;20483;-71
2022/06/28 11:05:20;;;;;;;2.10;0.90;;;;;;;19.53;100.00;102143.38;4999127;28;20937;-71
2022/06/28 11:08:00;;;;;;;2.80;1.60;;;;;;;19.41;100.00;102129.66;4999277;28;20452;-71
2022/06/28 11:10:26;;;;;;;1.90;1.03;;;;;;;19.71;100.00;102140.69;4999969;28;20972;-72
2022/06/28 11:12:52;;;;;;;4.17;1.03;;;;;;;19.93;100.00;102148.34;5000679;28;20512;-71
2022/06/28 11:15:32;;;;;;;4.13;1.03;;;;;;;19.94;100.00;102150.84;5001997;28;20550;-71
2022/06/28 11:17:59;;;;;;;3.50;1.13;;;;;;;20.11;100.00;102150.22;5001895;28;20199;-71
2022/06/28 11:20:25;;;;;;;3.07;1.50;;;;;;;19.82;100.00;102125.47;4994364;28;20447;-71
2022/06/28 11:22:52;;;;;;;5.10;1.20;;;;;;;19.18;100.00;102057.75;5001337;28;20440;-70
2022/06/28 11:25:22;;;;;;;3.10;1.10;;;;;;;19.75;100.00;102130.16;4999781;28;20525;-71
2022/06/28 11:27:52;;;;;;;1.83;1.03;;;;;;;20.05;100.00;102138.38;4999063;28;20852;-70
2022/06/28 11:30:21;;;;;;;2.40;1.20;;;;;;;20.03;100.00;102135.84;5041776;22;20847;-78